Terminal Aerodrome Forecast
Issued by NWS Sioux Falls, SD

Home | Current Version | Previous Version | Text Only | Print | Product List | Glossary Off
Versions: 1 2 3 4 5 6 7 8 9 10 11 12 13 14 15 16 17 18 19

000
FTUS43 KFSD 261720
TAFHON
TAF
KHON 261720Z 2618/2718 36018G26KT P6SM SCT100
     FM262300 35007KT P6SM BKN100
     FM270400 VRB03KT P6SM BKN100
     FM271500 15008KT P6SM BKN080=

USA.gov is the U.S. government's official web portal to all federal, state and local government web resources and services.